Flight Track Log - Related Links

Times and Time Zones

All times are in EDT time to prevent confusion due to time zone crossing. See the SWA1707 flight status page for this flight to view local times or setup timezone preferences in your user account.


Time Position Orientation Groundspeed Altitude Reporting Facility
EDT Latitude Longitude Course Direction KTS MPH feet Rate Location/Type
Tue 08:16:19 PM 29.9981 -90.2867 281° West 165 190 700  Level Houston Center
Tue 08:16:50 PM 30.0031 -90.3153 281° West 170 196 1,700 1,780 Climbing Houston Center
Tue 08:17:50 PM 30.0481 -90.3592 320° Northwest 236 272 3,400 2,338 Climbing Houston Center
Tue 08:19:06 PM 30.1161 -90.4175 323° Northwest 239 275 7,000 2,934 Climbing Houston Center
Tue 08:20:07 PM 30.1739 -90.4700 322° Northwest 256 295 10,100 2,341 Climbing Houston Center
Tue 08:21:09 PM 30.2358 -90.5294 320° Northwest 282 325 11,800 1,839 Climbing Houston Center
Tue 08:22:11 PM 30.3108 -90.6011 320° Northwest 342 394 13,900 2,244 Climbing Houston Center
Tue 08:23:12 PM 30.3689 -90.6972 305° West 361 415 16,400 2,488 Climbing Houston Center
Tue 08:24:14 PM 30.4267 -90.7917 305° West 360 414 19,000 2,419 Climbing Houston Center
Tue 08:25:16 PM 30.4969 -90.9042 306° West 359 413 21,400 2,049 Climbing Houston Center
Tue 08:26:17 PM 30.5583 -91.0014 306° West 371 427 23,200 1,659 Climbing Houston Center
Tue 08:27:19 PM 30.6153 -91.1050 303° West 381 438 24,800 1,452 Climbing Houston Center
Tue 08:28:21 PM 30.6675 -91.2172 298° West 393 452 26,200 1,355 Climbing Houston Center
Tue 08:29:23 PM 30.7192 -91.3319 298° West 400 460 27,600 1,610 Climbing Houston Center
Tue 08:30:24 PM 30.7814 -91.4631 299° West 402 463 29,500 1,659 Climbing Houston Center
Tue 08:31:26 PM 30.8328 -91.5761 298° West 395 455 31,000 1,355 Climbing Houston Center
Tue 08:32:28 PM 30.8839 -91.6878 298° West 391 450 32,300 1,258 Climbing Houston Center
Tue 08:33:30 PM 30.9361 -91.7994 299° West 392 451 33,600 1,073 Climbing Houston Center
Tue 08:34:31 PM 30.9861 -91.9083 298° West 383 441 34,500 683 Climbing Houston Center
Tue 08:35:33 PM 31.0372 -92.0189 298° West 387 445 35,000 242 Climbing Houston Center
Tue 08:36:35 PM 31.0925 -92.1417 298° West 387 445 35,000  Level Houston Center
Tue 08:37:37 PM 31.1431 -92.2517 298° West 387 445 35,000  Level Houston Center
Tue 08:38:38 PM 31.1931 -92.3625 298° West 387 445 35,000  Level Houston Center
Tue 08:39:40 PM 31.2419 -92.4711 298° West 382 440 35,000 145 Level Houston Center
Tue 08:40:42 PM 31.2981 -92.6081 296° West 388 447 35,300 435 Climbing Houston Center
Tue 08:41:44 PM 31.3392 -92.7197 293° West 381 438 35,900 341 Climbing Houston Center
Tue 08:42:45 PM 31.3825 -92.8350 294° West 385 443 36,000 49 Climbing Houston Center
Tue 08:43:47 PM 31.4256 -92.9481 294° West 384 442 36,000  Level Houston Center
Tue 08:44:49 PM 31.4678 -93.0614 294° West 382 440 36,000  Level Houston Center
Tue 08:45:50 PM 31.5100 -93.1739 294° West 381 438 36,000  Level Houston Center
Tue 08:46:52 PM 31.5539 -93.2919 294° West 387 445 36,000  Level Houston Center
Tue 08:47:54 PM 31.6056 -93.4294 294° West 385 443 36,000  Level Houston Center
Tue 08:48:55 PM 31.6483 -93.5456 293° West 389 448 36,000  Level Houston Center
Tue 08:49:16 PM 31.6583 -93.5792 289° West 391 450 36,000  Level Fort Worth Center
Tue 08:50:16 PM 31.7014 -93.6972 293° West 391 450 36,000  Level Fort Worth Center
Tue 08:51:16 PM 31.7422 -93.8128 293° West 391 450 36,000  Level Fort Worth Center
Tue 08:52:16 PM 31.7708 -93.9339 286° West 391 450 36,000  Level Fort Worth Center
Tue 08:53:16 PM 31.7931 -94.0575 282° West 384 442 36,000  Level Fort Worth Center
Tue 08:54:16 PM 31.8192 -94.1789 284° West 384 442 36,000  Level Fort Worth Center
Tue 08:55:16 PM 31.8431 -94.2978 283° West 384 442 36,000  Level Fort Worth Center
Tue 08:56:16 PM 31.8667 -94.4194 283° West 389 448 36,000  Level Fort Worth Center
Tue 08:57:16 PM 31.8906 -94.5408 283° West 389 448 36,000  Level Fort Worth Center
Tue 08:58:16 PM 31.9161 -94.6672 283° West 389 448 36,000  Level Fort Worth Center
Tue 08:59:16 PM 31.9375 -94.7892 282° West 389 448 36,000  Level Fort Worth Center
Tue 09:00:16 PM 31.9611 -94.9108 283° West 389 448 36,000  Level Fort Worth Center
Tue 09:01:16 PM 32.0008 -95.0297 292° West 389 448 36,000 -750 Level Fort Worth Center
Tue 09:02:16 PM 32.0489 -95.1436 296° West 389 448 34,500 -2,350 Descending Fort Worth Center
Tue 09:03:16 PM 32.0989 -95.2578 297° West 389 448 31,300 -3,200 Descending Fort Worth Center
Tue 09:04:16 PM 32.1508 -95.3744 298° West 401 461 28,100 -2,950 Descending Fort Worth Center
Tue 09:05:16 PM 32.1989 -95.4936 296° West 401 461 25,400 -2,600 Descending Fort Worth Center
Tue 09:06:16 PM 32.2483 -95.6031 298° West 396 456 22,900 -2,400 Descending Fort Worth Center
Tue 09:07:16 PM 32.2958 -95.7103 298° West 390 449 20,600 -2,300 Descending Fort Worth Center
Tue 09:08:16 PM 32.3411 -95.8150 297° West 370 426 18,300 -2,250 Descending Fort Worth Center
Tue 09:09:16 PM 32.3842 -95.9178 296° West 357 411 16,100 -2,300 Descending Fort Worth Center
Tue 09:10:16 PM 32.4292 -96.0228 297° West 333 383 13,700 -2,200 Descending Fort Worth Center
Tue 09:11:16 PM 32.4675 -96.1058 299° West 325 374 11,700 -1,650 Descending Fort Worth Center
Tue 09:12:16 PM 32.5103 -96.2086 296° West 315 362 10,400 -950 Descending Fort Worth Center
Tue 09:13:16 PM 32.5403 -96.2822 296° West 295 339 9,800 -950 Descending Fort Worth Center
Tue 09:14:16 PM 32.5847 -96.3706 301° West 278 320 8,500 -1,100 Descending Fort Worth Center
Tue 09:15:16 PM 32.6231 -96.4367 305° West 278 320 7,600 -1,000 Descending Fort Worth Center
Tue 09:16:16 PM 32.6717 -96.5200 305° West 278 320 6,500 -800 Descending Fort Worth Center
Tue 09:17:16 PM 32.7242 -96.5739 319° Northwest 278 320 6,000 -1,100 Descending Fort Worth Center
Tue 09:18:16 PM 32.7892 -96.6350 322° Northwest 278 320 4,300 -1,290 Descending Fort Worth Center
Tue 09:18:49 PM 32.8167 -96.6667 316° Northwest 273 314 4,000 -490 Descending Dallas / Fort Worth TRACON
Tue 09:19:54 PM 32.8833 -96.7167 328° Northwest 245 282 3,500 -500 Descending Dallas / Fort Worth TRACON
Tue 09:20:49 PM 32.9333 -96.7667 320° Northwest 241 277 3,000 -300 Descending Dallas / Fort Worth TRACON
Tue 09:21:54 PM 32.9667 -96.8333 301° West 223 257 2,900 -432 Descending Dallas / Fort Worth TRACON
Tue 09:22:54 PM 32.9667 -96.9000 270° West 180 207 2,100 -496 Descending Dallas / Fort Worth TRACON
Tue 09:23:55 PM 32.9167 -96.9000 180° South 170 196 1,900 -500 Descending Dallas / Fort Worth TRACON
Tue 09:24:54 PM 32.8833 -96.8833 157° South 134 154 1,100 -814 Descending Dallas / Fort Worth TRACON

Login

Don't have an account? Register now (free) for customized features, flight alerts, and more!